createdAt,value
2018-09-02T00:00:44.435Z,14.91
2018-09-02T00:01:44.432Z,14.89
2018-09-02T00:02:44.430Z,14.89
2018-09-02T00:03:44.429Z,14.91
2018-09-02T00:04:44.428Z,14.99
2018-09-02T00:05:44.426Z,14.91
2018-09-02T00:06:44.432Z,14.91
2018-09-02T00:07:44.422Z,14.94
2018-09-02T00:08:44.422Z,14.92
2018-09-02T00:09:44.418Z,14.89
2018-09-02T00:10:44.416Z,14.91
2018-09-02T00:11:44.416Z,14.88
2018-09-02T00:12:44.413Z,14.91
2018-09-02T00:13:44.414Z,14.88
2018-09-02T00:14:44.410Z,14.79
2018-09-02T00:15:44.408Z,14.82
2018-09-02T00:16:44.407Z,14.82
2018-09-02T00:17:44.412Z,14.84
2018-09-02T00:18:44.404Z,14.78
2018-09-02T00:19:44.402Z,14.78
2018-09-02T00:20:44.400Z,14.81
2018-09-02T00:21:44.397Z,14.81
2018-09-02T00:22:44.396Z,14.77
2018-09-02T00:23:44.395Z,14.81
2018-09-02T00:24:44.394Z,14.84
2018-09-02T00:25:44.391Z,14.88
2018-09-02T00:26:44.390Z,14.85
2018-09-02T00:27:44.388Z,14.88
2018-09-02T00:28:44.388Z,14.88
2018-09-02T00:29:44.389Z,14.78
2018-09-02T00:30:44.383Z,14.92
2018-09-02T00:31:44.381Z,14.81
2018-09-02T00:32:44.380Z,14.77
2018-09-02T00:33:44.416Z,14.86
2018-09-02T00:34:44.376Z,14.82
2018-09-02T00:35:44.373Z,14.84
2018-09-02T00:36:44.371Z,14.81
2018-09-02T00:37:44.369Z,14.69
2018-09-02T00:38:44.368Z,14.84
2018-09-02T00:39:44.367Z,14.78
2018-09-02T00:40:44.364Z,14.77
2018-09-02T00:41:44.363Z,14.79
2018-09-02T00:42:44.362Z,14.78
2018-09-02T00:43:44.362Z,14.68
2018-09-02T00:44:44.357Z,14.73
2018-09-02T00:45:44.355Z,14.69
2018-09-02T00:46:44.354Z,14.70
2018-09-02T00:47:44.352Z,14.70
2018-09-02T00:48:44.351Z,14.68
2018-09-02T00:49:44.349Z,14.68
2018-09-02T00:50:44.347Z,14.77
2018-09-02T00:51:44.345Z,14.79
2018-09-02T00:52:44.344Z,14.70
2018-09-02T00:53:44.340Z,14.78
2018-09-02T00:54:44.339Z,14.79
2018-09-02T00:55:44.337Z,14.78
2018-09-02T00:56:44.335Z,14.72
2018-09-02T00:57:44.333Z,14.72
2018-09-02T00:58:44.331Z,14.66
2018-09-02T00:59:44.331Z,14.81
2018-09-02T01:00:44.329Z,14.65
2018-09-02T01:01:44.326Z,14.73
2018-09-02T01:02:44.324Z,14.60
2018-09-02T01:03:44.323Z,14.66
2018-09-02T01:04:44.321Z,14.68
2018-09-02T01:05:44.318Z,14.72
2018-09-02T01:06:44.316Z,14.72
2018-09-02T01:07:44.315Z,14.72
2018-09-02T01:08:44.314Z,14.73
2018-09-02T01:09:44.311Z,14.63
2018-09-02T01:10:44.310Z,14.72
2018-09-02T01:11:44.307Z,14.68
2018-09-02T01:12:44.309Z,14.62
2018-09-02T01:13:44.304Z,14.63
2018-09-02T01:14:44.301Z,14.65
2018-09-02T01:15:44.301Z,14.59
2018-09-02T01:16:44.297Z,14.65
2018-09-02T01:17:44.297Z,14.68
2018-09-02T01:18:44.294Z,14.65
2018-09-02T01:19:44.292Z,14.79
2018-09-02T01:20:44.289Z,14.72
2018-09-02T01:21:44.287Z,14.77
2018-09-02T01:22:44.286Z,14.78
2018-09-02T01:23:44.285Z,14.72
2018-09-02T01:24:44.286Z,14.79
2018-09-02T01:25:44.280Z,14.73
2018-09-02T01:26:44.279Z,14.78
2018-09-02T01:27:44.276Z,14.73
2018-09-02T01:28:44.275Z,14.73
2018-09-02T01:29:44.273Z,14.78
2018-09-02T01:30:44.271Z,14.72
2018-09-02T01:31:44.268Z,14.72
2018-09-02T01:32:44.271Z,14.72
2018-09-02T01:33:44.263Z,14.73
2018-09-02T01:34:44.262Z,14.69
2018-09-02T01:35:44.260Z,14.77
2018-09-02T01:36:44.259Z,14.70
2018-09-02T01:37:44.256Z,14.78
2018-09-02T01:38:44.255Z,14.86
2018-09-02T01:39:44.253Z,14.82
2018-09-02T01:40:44.250Z,14.86
2018-09-02T01:41:44.249Z,14.79
2018-09-02T01:42:44.253Z,14.91
2018-09-02T01:43:44.245Z,14.84
2018-09-02T01:44:44.243Z,14.79
2018-09-02T01:45:44.241Z,14.79
2018-09-02T01:46:44.239Z,14.79
2018-09-02T01:47:44.239Z,14.84
2018-09-02T01:48:44.236Z,14.79
2018-09-02T01:49:44.232Z,14.81
2018-09-02T01:50:44.232Z,14.85
2018-09-02T01:51:44.230Z,14.88
2018-09-02T01:52:44.228Z,14.85
2018-09-02T01:53:44.230Z,14.82
2018-09-02T01:54:44.226Z,14.89
2018-09-02T01:55:44.221Z,14.82
2018-09-02T01:56:44.221Z,14.85
2018-09-02T01:57:44.217Z,14.77
2018-09-02T01:58:44.215Z,14.73
2018-09-02T01:59:44.214Z,14.73
2018-09-02T02:00:44.213Z,14.73
2018-09-02T02:01:44.210Z,14.77
2018-09-02T02:02:44.207Z,14.79
2018-09-02T02:03:44.208Z,14.77
2018-09-02T02:04:44.204Z,14.73
2018-09-02T02:05:44.203Z,14.72
2018-09-02T02:06:44.198Z,14.77
2018-09-02T02:07:44.200Z,14.78
2018-09-02T02:08:44.196Z,14.78
2018-09-02T02:09:44.193Z,14.82
2018-09-02T02:10:44.192Z,14.82
2018-09-02T02:11:44.190Z,14.84
2018-09-02T02:12:44.188Z,14.88
2018-09-02T02:13:44.185Z,14.78
2018-09-02T02:14:44.181Z,14.72
2018-09-02T02:15:44.181Z,14.70
2018-09-02T02:16:44.179Z,14.78
2018-09-02T02:17:44.211Z,14.78
2018-09-02T02:18:44.175Z,14.72
2018-09-02T02:19:44.173Z,14.78
2018-09-02T02:20:44.170Z,14.70
2018-09-02T02:21:44.168Z,14.66
2018-09-02T02:22:44.166Z,14.68
2018-09-02T02:23:44.165Z,14.70
2018-09-02T02:24:44.164Z,14.78
2018-09-02T02:25:44.159Z,14.73
2018-09-02T02:26:44.157Z,14.72
2018-09-02T02:27:44.156Z,14.72
2018-09-02T02:28:44.153Z,14.70
2018-09-02T02:29:44.151Z,14.72
2018-09-02T02:30:44.150Z,14.68
2018-09-02T02:31:44.147Z,14.63
2018-09-02T02:32:44.145Z,14.68
2018-09-02T02:33:44.144Z,14.62
2018-09-02T02:34:44.141Z,14.72
2018-09-02T02:35:44.139Z,14.68
2018-09-02T02:36:44.137Z,14.70
2018-09-02T02:37:44.135Z,14.65
2018-09-02T02:38:44.132Z,14.62
2018-09-02T02:39:44.132Z,14.70
2018-09-02T02:40:44.130Z,14.60
2018-09-02T02:41:44.127Z,14.63
2018-09-02T02:42:44.125Z,14.51
2018-09-02T02:43:44.126Z,14.51
2018-09-02T02:44:44.121Z,14.58
2018-09-02T02:45:44.118Z,14.62
2018-09-02T02:46:44.115Z,14.55
2018-09-02T02:47:44.115Z,14.53
2018-09-02T02:48:44.112Z,14.58
2018-09-02T02:49:44.109Z,14.51
2018-09-02T02:50:44.113Z,14.48
2018-09-02T02:51:44.107Z,14.51
2018-09-02T02:52:44.105Z,14.53
2018-09-02T02:53:44.100Z,14.50
2018-09-02T02:54:44.098Z,14.43
2018-09-02T02:55:44.098Z,14.44
2018-09-02T02:56:44.097Z,14.54
2018-09-02T02:57:44.093Z,14.59
2018-09-02T02:58:44.091Z,14.55
2018-09-02T02:59:44.091Z,14.53
2018-09-02T03:00:44.088Z,14.45
2018-09-02T03:01:44.083Z,14.40
2018-09-02T03:02:44.083Z,14.43
2018-09-02T03:03:44.082Z,14.41
2018-09-02T03:04:44.081Z,14.43
2018-09-02T03:05:44.079Z,14.41
2018-09-02T03:06:44.077Z,14.44
2018-09-02T03:07:44.072Z,14.48
2018-09-02T03:08:44.071Z,14.41
2018-09-02T03:09:44.069Z,14.45
2018-09-02T03:10:44.127Z,14.41
2018-09-02T03:11:44.064Z,14.35
2018-09-02T03:12:44.064Z,14.37
2018-09-02T03:13:44.061Z,14.35
2018-09-02T03:14:44.058Z,14.37
2018-09-02T03:15:44.056Z,14.32
2018-09-02T03:16:44.054Z,14.37
2018-09-02T03:17:44.052Z,14.32
2018-09-02T03:18:44.051Z,14.32
2018-09-02T03:19:44.049Z,14.32
2018-09-02T03:20:44.047Z,14.35
2018-09-02T03:21:44.044Z,14.33
2018-09-02T03:22:44.044Z,14.37
2018-09-02T03:23:44.041Z,14.28
2018-09-02T03:24:44.040Z,14.17
2018-09-02T03:25:44.036Z,14.26
2018-09-02T03:26:44.035Z,14.20
2018-09-02T03:27:44.032Z,14.22
2018-09-02T03:28:44.033Z,14.15
2018-09-02T03:29:44.027Z,14.07
2018-09-02T03:30:44.026Z,14.07
2018-09-02T03:31:44.025Z,14.12
2018-09-02T03:32:44.023Z,14.08
2018-09-02T03:33:44.023Z,14.10
2018-09-02T03:34:44.018Z,14.10
2018-09-02T03:35:44.016Z,14.05
2018-09-02T03:36:44.014Z,14.14
2018-09-02T03:37:44.011Z,14.11
2018-09-02T03:38:44.011Z,14.18
2018-09-02T03:39:44.008Z,14.10
2018-09-02T03:40:44.006Z,13.99
2018-09-02T03:41:44.002Z,13.97
2018-09-02T03:42:44.002Z,14.04
2018-09-02T03:43:43.999Z,13.99
2018-09-02T03:44:43.997Z,14.00
2018-09-02T03:45:43.994Z,14.04
2018-09-02T03:46:43.993Z,13.93
2018-09-02T03:47:43.992Z,14.04
2018-09-02T03:48:43.989Z,14.03
2018-09-02T03:49:43.988Z,13.96
2018-09-02T03:50:43.989Z,14.00
2018-09-02T03:51:43.982Z,13.97
2018-09-02T03:52:43.981Z,13.92
2018-09-02T03:53:43.983Z,13.87
2018-09-02T03:54:43.976Z,13.93
2018-09-02T03:55:43.974Z,13.96
2018-09-02T03:56:43.974Z,13.95
2018-09-02T03:57:43.970Z,14.00
2018-09-02T03:58:43.967Z,13.96
2018-09-02T03:59:43.967Z,13.96
2018-09-02T04:00:43.963Z,13.97
2018-09-02T04:01:43.962Z,13.90
2018-09-02T04:02:43.959Z,13.96
2018-09-02T04:03:43.957Z,13.95
2018-09-02T04:04:43.957Z,13.93
2018-09-02T04:05:43.953Z,13.95
2018-09-02T04:06:43.950Z,13.89
2018-09-02T04:07:43.949Z,13.92
2018-09-02T04:08:43.948Z,13.78
2018-09-02T04:09:43.943Z,13.95
2018-09-02T04:10:43.942Z,13.89
2018-09-02T04:11:43.941Z,13.85
2018-09-02T04:12:43.939Z,13.90
2018-09-02T04:13:43.937Z,13.81
2018-09-02T04:14:43.932Z,13.97
2018-09-02T04:15:43.933Z,13.99
2018-09-02T04:16:43.930Z,13.92
2018-09-02T04:17:43.927Z,13.83
2018-09-02T04:18:43.924Z,13.90
2018-09-02T04:19:43.923Z,13.92
2018-09-02T04:20:43.921Z,13.92
2018-09-02T04:21:43.917Z,13.86
2018-09-02T04:22:43.917Z,13.96
2018-09-02T04:23:43.914Z,13.90
2018-09-02T04:24:43.913Z,13.90
2018-09-02T04:25:43.914Z,13.87
2018-09-02T04:26:43.908Z,13.74
2018-09-02T04:27:43.906Z,13.85
2018-09-02T04:28:43.907Z,13.85
2018-09-02T04:29:43.901Z,13.81
2018-09-02T04:30:43.901Z,13.77
2018-09-02T04:31:43.900Z,13.83
2018-09-02T04:32:43.895Z,13.77
2018-09-02T04:33:43.912Z,13.83
2018-09-02T04:34:43.890Z,13.85
2018-09-02T04:35:43.888Z,13.83
2018-09-02T04:36:43.885Z,13.81
2018-09-02T04:37:43.886Z,13.78
2018-09-02T04:38:43.885Z,13.79
2018-09-02T04:39:43.880Z,13.75
2018-09-02T04:40:43.877Z,13.77
2018-09-02T04:41:43.874Z,13.81
2018-09-02T04:42:43.872Z,13.89
2018-09-02T04:43:43.869Z,13.86
2018-09-02T04:44:43.866Z,13.85
2018-09-02T04:45:43.864Z,13.86
2018-09-02T04:46:43.861Z,13.85
2018-09-02T04:47:43.861Z,13.92
2018-09-02T04:48:43.858Z,13.97
2018-09-02T04:49:43.855Z,13.97
2018-09-02T04:50:43.855Z,13.95
2018-09-02T04:51:43.852Z,14.07
2018-09-02T04:52:43.847Z,14.04
2018-09-02T04:53:43.844Z,13.97
2018-09-02T04:54:43.844Z,14.04
2018-09-02T04:55:43.842Z,14.10
2018-09-02T04:56:43.839Z,14.00
2018-09-02T04:57:43.836Z,14.07
2018-09-02T04:58:43.835Z,14.08
2018-09-02T04:59:43.836Z,14.15
2018-09-02T05:00:43.845Z,14.20
2018-09-02T05:01:43.830Z,14.26
2018-09-02T05:02:43.825Z,14.29
2018-09-02T05:03:43.824Z,14.36
2018-09-02T05:04:43.824Z,14.28
2018-09-02T05:05:43.818Z,14.36
2018-09-02T05:06:43.818Z,14.35
2018-09-02T05:07:43.816Z,14.36
2018-09-02T05:08:43.812Z,14.33
2018-09-02T05:09:43.809Z,14.35
2018-09-02T05:10:43.810Z,14.40
2018-09-02T05:11:43.806Z,14.44
2018-09-02T05:12:43.805Z,14.41
2018-09-02T05:13:43.801Z,14.48
2018-09-02T05:14:43.798Z,14.50
2018-09-02T05:15:43.796Z,14.55
2018-09-02T05:16:43.799Z,14.59
2018-09-02T05:17:43.794Z,14.70
2018-09-02T05:18:43.790Z,14.65
2018-09-02T05:19:43.789Z,14.65
2018-09-02T05:20:43.788Z,14.66
2018-09-02T05:21:43.785Z,14.77
2018-09-02T05:22:43.787Z,14.77
2018-09-02T05:23:43.781Z,14.81
2018-09-02T05:24:43.780Z,14.72
2018-09-02T05:25:43.777Z,14.78
2018-09-02T05:26:43.775Z,14.88
2018-09-02T05:27:43.775Z,14.81
2018-09-02T05:28:43.772Z,14.73
2018-09-02T05:29:43.769Z,14.82
2018-09-02T05:30:43.769Z,14.82
2018-09-02T05:31:43.764Z,14.85
2018-09-02T05:32:43.765Z,14.89
2018-09-02T05:33:43.761Z,14.82
2018-09-02T05:34:43.759Z,14.94
2018-09-02T05:35:43.759Z,14.91
2018-09-02T05:36:43.789Z,14.92
2018-09-02T05:37:43.754Z,14.99
2018-09-02T05:38:43.752Z,14.92
2018-09-02T05:39:43.751Z,15.00
2018-09-02T05:40:43.749Z,14.97
2018-09-02T05:41:43.746Z,15.03
2018-09-02T05:42:43.749Z,14.94
2018-09-02T05:43:43.744Z,15.07
2018-09-02T05:44:43.747Z,15.09
2018-09-02T05:45:43.740Z,15.09
2018-09-02T05:46:43.739Z,15.07
2018-09-02T05:47:43.738Z,15.17
2018-09-02T05:48:43.738Z,15.17
2018-09-02T05:49:43.734Z,15.18
2018-09-02T05:50:43.732Z,15.10
2018-09-02T05:51:43.732Z,15.24
2018-09-02T05:52:43.731Z,15.22
2018-09-02T05:53:43.727Z,15.21
2018-09-02T05:54:43.725Z,15.17
2018-09-02T05:55:43.726Z,15.22
2018-09-02T05:56:43.723Z,15.33
2018-09-02T05:57:43.816Z,15.28
2018-09-02T05:58:43.720Z,15.29
2018-09-02T05:59:43.719Z,15.35
2018-09-02T06:00:43.716Z,15.40
2018-09-02T06:01:43.715Z,15.43
2018-09-02T06:02:43.726Z,15.51
2018-09-02T06:03:43.713Z,15.43
2018-09-02T06:04:43.712Z,15.54
2018-09-02T06:05:43.710Z,15.47
2018-09-02T06:06:43.708Z,15.54
2018-09-02T06:07:43.709Z,15.47
2018-09-02T06:08:43.705Z,15.51
2018-09-02T06:09:43.704Z,15.47
2018-09-02T06:10:43.701Z,15.52
2018-09-02T06:11:43.702Z,15.44
2018-09-02T06:12:43.700Z,15.47
2018-09-02T06:13:43.697Z,15.46
2018-09-02T06:14:43.697Z,15.52
2018-09-02T06:15:43.696Z,15.52
2018-09-02T06:16:43.693Z,15.55
2018-09-02T06:17:43.693Z,15.47
2018-09-02T06:18:43.691Z,15.51
2018-09-02T06:19:43.690Z,15.55
2018-09-02T06:20:43.691Z,15.61
2018-09-02T06:21:43.686Z,15.58
2018-09-02T06:22:43.685Z,15.62
2018-09-02T06:23:43.684Z,15.61
2018-09-02T06:24:43.684Z,15.59
2018-09-02T06:25:43.682Z,15.67
2018-09-02T06:26:43.732Z,15.70
2018-09-02T06:27:43.683Z,15.65
2018-09-02T06:28:43.679Z,15.68
2018-09-02T06:29:43.680Z,15.75
2018-09-02T06:30:43.676Z,15.73
2018-09-02T06:31:43.676Z,15.75
2018-09-02T06:32:43.729Z,15.86
2018-09-02T06:33:43.675Z,15.90
2018-09-02T06:34:43.672Z,15.91
2018-09-02T06:35:43.673Z,15.97
2018-09-02T06:36:43.670Z,15.97
2018-09-02T06:37:43.668Z,16.02
2018-09-02T06:38:43.666Z,16.05
2018-09-02T06:39:43.667Z,16.04
2018-09-02T06:40:43.665Z,16.05
2018-09-02T06:41:43.662Z,16.04
2018-09-02T06:42:43.664Z,16.16
2018-09-02T06:43:43.661Z,16.04
2018-09-02T06:44:43.661Z,16.17
2018-09-02T06:45:43.704Z,16.09
2018-09-02T06:46:43.658Z,16.13
2018-09-02T06:47:43.658Z,16.13
2018-09-02T06:48:43.657Z,16.28
2018-09-02T06:49:43.656Z,16.26
2018-09-02T06:50:43.654Z,16.39
2018-09-02T06:51:43.655Z,16.39
2018-09-02T06:52:43.654Z,16.54
2018-09-02T06:53:43.656Z,16.60
2018-09-02T06:54:43.653Z,16.65
2018-09-02T06:55:43.651Z,16.58
2018-09-02T06:56:43.650Z,16.69
2018-09-02T06:57:43.649Z,16.68
2018-09-02T06:58:43.676Z,16.72
2018-09-02T06:59:43.651Z,16.81
2018-09-02T07:00:43.649Z,16.81
2018-09-02T07:01:43.648Z,16.90
2018-09-02T07:02:43.648Z,16.87
2018-09-02T07:03:43.648Z,16.87
2018-09-02T07:04:43.646Z,16.94
2018-09-02T07:05:43.646Z,17.02
2018-09-02T07:06:43.741Z,16.96
2018-09-02T07:07:43.645Z,16.96
2018-09-02T07:08:43.646Z,16.96
2018-09-02T07:09:43.644Z,17.04
2018-09-02T07:10:43.644Z,17.06
2018-09-02T07:11:43.644Z,17.06
2018-09-02T07:12:43.644Z,17.08
2018-09-02T07:13:43.643Z,17.05
2018-09-02T07:14:43.642Z,17.12
2018-09-02T07:15:43.642Z,17.14
2018-09-02T07:16:43.642Z,17.20
2018-09-02T07:17:43.641Z,17.26
2018-09-02T07:18:43.642Z,17.30
2018-09-02T07:19:43.643Z,17.33
2018-09-02T07:20:43.641Z,17.24
2018-09-02T07:21:43.641Z,17.33
2018-09-02T07:22:43.642Z,17.39
2018-09-02T07:23:43.641Z,17.44
2018-09-02T07:24:43.642Z,17.51
2018-09-02T07:25:43.640Z,17.63
2018-09-02T07:26:43.640Z,17.59
2018-09-02T07:27:43.641Z,17.63
2018-09-02T07:28:43.641Z,17.76
2018-09-02T07:29:43.641Z,17.68
2018-09-02T07:30:43.639Z,17.71
2018-09-02T07:31:43.640Z,17.80
2018-09-02T07:32:43.641Z,17.76
2018-09-02T07:33:43.639Z,17.76
2018-09-02T07:34:43.641Z,17.86
2018-09-02T07:35:43.641Z,17.82
2018-09-02T07:36:43.642Z,17.85
2018-09-02T07:37:43.640Z,17.90
2018-09-02T07:38:43.640Z,17.89
2018-09-02T07:39:43.642Z,17.92
2018-09-02T07:40:43.641Z,17.89
2018-09-02T07:41:43.642Z,18.01
2018-09-02T07:42:43.642Z,18.11
2018-09-02T07:43:43.711Z,18.04
2018-09-02T07:44:43.644Z,18.13
2018-09-02T07:45:43.641Z,18.10
2018-09-02T07:46:43.643Z,18.05
2018-09-02T07:47:43.644Z,18.19
2018-09-02T07:48:43.644Z,18.19
2018-09-02T07:49:43.644Z,18.22
2018-09-02T07:50:43.644Z,18.28
2018-09-02T07:51:43.646Z,18.31
2018-09-02T07:52:43.646Z,18.35
2018-09-02T07:53:43.644Z,18.45
2018-09-02T07:54:43.647Z,18.43
2018-09-02T07:55:43.648Z,18.50
2018-09-02T07:56:43.648Z,18.56
2018-09-02T07:57:43.647Z,18.58
2018-09-02T07:58:43.648Z,18.59
2018-09-02T07:59:43.648Z,18.73
2018-09-02T08:00:43.650Z,18.70
2018-09-02T08:01:43.649Z,18.70
2018-09-02T08:02:43.736Z,18.83
2018-09-02T08:03:43.655Z,18.88
2018-09-02T08:04:43.653Z,18.88
2018-09-02T08:05:43.653Z,18.93
2018-09-02T08:06:43.653Z,18.96
2018-09-02T08:07:43.658Z,18.92
2018-09-02T08:08:43.654Z,18.99
2018-09-02T08:09:43.655Z,19.04
2018-09-02T08:10:43.657Z,19.11
2018-09-02T08:11:43.662Z,19.24
2018-09-02T08:12:43.868Z,19.19
2018-09-02T08:13:43.658Z,19.34
2018-09-02T08:14:43.662Z,19.24
2018-09-02T08:15:43.661Z,19.21
2018-09-02T08:16:43.663Z,19.30
2018-09-02T08:17:43.664Z,19.21
2018-09-02T08:18:43.665Z,19.26
2018-09-02T08:19:43.695Z,19.33
2018-09-02T08:20:43.669Z,19.37
2018-09-02T08:21:43.667Z,19.44
2018-09-02T08:22:43.668Z,19.54
2018-09-02T08:23:43.670Z,19.45
2018-09-02T08:24:43.672Z,19.47
2018-09-02T08:25:43.673Z,19.47
2018-09-02T08:26:43.777Z,19.52
2018-09-02T08:27:43.676Z,19.76
2018-09-02T08:28:43.676Z,19.89
2018-09-02T08:29:43.679Z,19.94
2018-09-02T08:30:43.679Z,20.22
2018-09-02T08:31:43.681Z,20.50
2018-09-02T08:32:43.683Z,20.72
2018-09-02T08:33:43.683Z,21.18
2018-09-02T08:34:43.686Z,21.73
2018-09-02T08:35:43.689Z,22.88
2018-09-02T08:36:43.693Z,23.23
2018-09-02T08:37:43.695Z,23.37
2018-09-02T08:38:43.740Z,24.28
2018-09-02T08:39:43.704Z,24.86
2018-09-02T08:40:43.710Z,25.11
2018-09-02T08:41:43.714Z,25.93
2018-09-02T08:42:43.723Z,25.84
2018-09-02T08:43:43.726Z,25.36
2018-09-02T08:44:43.733Z,25.17
2018-09-02T08:45:43.740Z,24.40
2018-09-02T08:46:43.746Z,24.01
2018-09-02T08:47:43.754Z,25.01
2018-09-02T08:48:43.763Z,25.87
2018-09-02T08:49:43.770Z,26.22
2018-09-02T08:50:43.780Z,26.36
2018-09-02T08:51:43.790Z,26.84
2018-09-02T08:52:43.800Z,26.66
2018-09-02T08:53:43.808Z,26.47
2018-09-02T08:54:43.819Z,26.88
2018-09-02T08:55:43.828Z,26.22
2018-09-02T08:56:43.840Z,26.41
2018-09-02T08:57:43.849Z,27.07
2018-09-02T08:58:43.861Z,27.83
2018-09-02T08:59:43.873Z,28.05
2018-09-02T09:00:43.884Z,28.20
2018-09-02T09:01:43.901Z,27.92
2018-09-02T09:02:43.907Z,27.85
2018-09-02T09:03:43.919Z,28.05
2018-09-02T09:04:43.932Z,27.98
2018-09-02T09:05:43.944Z,28.14
2018-09-02T09:06:43.958Z,28.42
2018-09-02T09:07:44.052Z,28.74
2018-09-02T09:08:44.182Z,28.56
2018-09-02T09:09:43.997Z,28.70
2018-09-02T09:10:44.009Z,28.60
2018-09-02T09:11:44.023Z,28.48
2018-09-02T09:12:44.041Z,28.78
2018-09-02T09:13:44.052Z,27.93
2018-09-02T09:14:44.064Z,27.71
2018-09-02T09:15:44.079Z,27.96
2018-09-02T09:16:44.235Z,28.48
2018-09-02T09:17:44.110Z,27.03
2018-09-02T09:18:44.121Z,27.11
2018-09-02T09:19:44.136Z,27.42
2018-09-02T09:20:44.151Z,27.96
2018-09-02T09:21:44.286Z,27.10
2018-09-02T09:22:44.223Z,26.83
2018-09-02T09:23:44.195Z,27.22
2018-09-02T09:24:44.211Z,27.21
2018-09-02T09:25:44.225Z,27.54
2018-09-02T09:26:44.243Z,27.87
2018-09-02T09:27:44.258Z,28.59
2018-09-02T09:28:44.271Z,28.08
2018-09-02T09:29:44.285Z,27.95
2018-09-02T09:30:44.299Z,27.35
2018-09-02T09:31:44.315Z,27.39
2018-09-02T09:32:44.331Z,27.75
2018-09-02T09:33:44.345Z,27.80
2018-09-02T09:34:44.358Z,27.10
2018-09-02T09:35:44.376Z,27.35
2018-09-02T09:36:44.392Z,27.12
2018-09-02T09:37:44.405Z,27.12
2018-09-02T09:38:44.420Z,27.45
2018-09-02T09:39:44.436Z,27.80
2018-09-02T09:40:44.452Z,27.44
2018-09-02T09:41:44.467Z,27.10
2018-09-02T09:42:44.483Z,27.15
2018-09-02T09:43:44.497Z,27.74
2018-09-02T09:44:44.514Z,28.37
2018-09-02T09:45:44.528Z,28.79
2018-09-02T09:46:44.543Z,29.04
2018-09-02T09:47:44.560Z,28.89
2018-09-02T09:48:44.574Z,27.96
2018-09-02T09:49:44.589Z,27.35
2018-09-02T09:50:44.605Z,27.73
2018-09-02T09:51:44.620Z,27.29
2018-09-02T09:52:44.637Z,27.44
2018-09-02T09:53:44.651Z,27.82
2018-09-02T09:54:44.667Z,28.19
2018-09-02T09:55:44.777Z,27.65
2018-09-02T09:56:44.698Z,27.60
2018-09-02T09:57:44.710Z,27.96
2018-09-02T09:58:44.728Z,27.70
2018-09-02T09:59:44.743Z,27.86
2018-09-02T10:00:44.758Z,28.26
2018-09-02T10:01:44.773Z,28.70
2018-09-02T10:02:44.789Z,28.12
2018-09-02T10:03:44.861Z,28.12
2018-09-02T10:04:44.818Z,28.02
2018-09-02T10:05:44.841Z,27.98
2018-09-02T10:06:44.853Z,28.60
2018-09-02T10:07:44.870Z,29.10
2018-09-02T10:08:44.880Z,29.08
2018-09-02T10:09:44.895Z,28.72
2018-09-02T10:10:44.909Z,27.90
2018-09-02T10:11:44.939Z,28.39
2018-09-02T10:12:44.941Z,28.97
2018-09-02T10:13:44.955Z,28.51
2018-09-02T10:14:44.970Z,27.47
2018-09-02T10:15:44.985Z,26.89
2018-09-02T10:16:45.001Z,27.17
2018-09-02T10:17:45.016Z,27.36
2018-09-02T10:18:45.031Z,28.00
2018-09-02T10:19:45.045Z,28.29
2018-09-02T10:20:45.061Z,28.63
2018-09-02T10:21:45.075Z,28.59
2018-09-02T10:22:45.089Z,26.83
2018-09-02T10:23:45.103Z,26.09
2018-09-02T10:24:45.119Z,26.53
2018-09-02T10:25:45.132Z,27.30
2018-09-02T10:26:45.146Z,27.58
2018-09-02T10:27:45.159Z,27.96
2018-09-02T10:28:45.173Z,28.38
2018-09-02T10:29:45.187Z,28.86
2018-09-02T10:30:45.202Z,29.01
2018-09-02T10:31:45.216Z,27.86
2018-09-02T10:32:45.229Z,27.49
2018-09-02T10:33:45.243Z,28.01
2018-09-02T10:34:45.256Z,27.80
2018-09-02T10:35:45.274Z,28.47
2018-09-02T10:36:45.284Z,27.85
2018-09-02T10:37:45.298Z,27.33
2018-09-02T10:38:45.312Z,27.30
2018-09-02T10:39:45.324Z,27.39
2018-09-02T10:40:45.340Z,27.00
2018-09-02T10:41:45.352Z,27.40
2018-09-02T10:42:45.365Z,27.30
2018-09-02T10:43:45.380Z,27.40
2018-09-02T10:44:45.393Z,26.75
2018-09-02T10:45:45.405Z,26.26
2018-09-02T10:46:45.419Z,25.68
2018-09-02T10:47:45.432Z,25.18
2018-09-02T10:48:45.445Z,24.96
2018-09-02T10:49:45.546Z,24.93
2018-09-02T10:50:45.476Z,24.81
2018-09-02T10:51:45.483Z,24.91
2018-09-02T10:52:45.494Z,25.17
2018-09-02T10:53:45.505Z,25.46
2018-09-02T10:54:45.518Z,25.59
2018-09-02T10:55:45.530Z,25.44
2018-09-02T10:56:45.542Z,24.89
2018-09-02T10:57:45.551Z,24.69
2018-09-02T10:58:45.562Z,24.61
2018-09-02T10:59:45.657Z,24.18
2018-09-02T11:00:45.589Z,24.08
2018-09-02T11:01:45.594Z,24.29
2018-09-02T11:02:45.605Z,24.40
2018-09-02T11:03:45.615Z,24.38
2018-09-02T11:04:45.625Z,24.40
2018-09-02T11:05:45.634Z,24.57
2018-09-02T11:06:45.646Z,24.61
2018-09-02T11:07:45.697Z,24.76
2018-09-02T11:08:45.723Z,24.76
2018-09-02T11:09:45.673Z,24.68
2018-09-02T11:10:45.682Z,24.45
2018-09-02T11:11:45.692Z,24.29
2018-09-02T11:12:45.700Z,24.24
2018-09-02T11:13:45.758Z,24.10
2018-09-02T11:14:45.717Z,23.68
2018-09-02T11:15:45.727Z,23.81
2018-09-02T11:16:45.738Z,23.76
2018-09-02T11:17:45.742Z,23.61
2018-09-02T11:18:45.751Z,23.50
2018-09-02T11:19:45.764Z,23.59
2018-09-02T11:20:45.768Z,23.74
2018-09-02T11:21:45.775Z,23.78
2018-09-02T11:22:45.785Z,23.91
2018-09-02T11:23:45.794Z,23.76
2018-09-02T11:24:45.799Z,23.44
2018-09-02T11:25:45.807Z,23.13
2018-09-02T11:26:45.814Z,23.27
2018-09-02T11:27:45.822Z,23.50
2018-09-02T11:28:45.829Z,23.59
2018-09-02T11:31:49.214Z,23.77
2018-09-02T11:32:49.223Z,23.71
2018-09-02T11:33:49.226Z,23.69
2018-09-02T11:34:49.232Z,23.65
2018-09-02T11:35:49.240Z,23.68
2018-09-02T11:36:49.245Z,23.55
2018-09-02T11:37:49.253Z,23.27
2018-09-02T11:38:49.259Z,23.05
2018-09-02T11:39:49.265Z,23.00
2018-09-02T11:40:49.272Z,23.05
2018-09-02T11:41:49.278Z,23.21
2018-09-02T11:42:49.283Z,22.99
2018-09-02T11:43:49.290Z,23.21
2018-09-02T11:44:49.296Z,23.27
2018-09-02T11:45:49.302Z,23.34
2018-09-02T11:46:49.317Z,23.36
2018-09-02T11:47:49.314Z,23.47
2018-09-02T11:48:49.324Z,23.47
2018-09-02T11:49:49.344Z,23.46
2018-09-02T11:50:49.330Z,23.37
2018-09-02T11:51:49.364Z,23.48
2018-09-02T11:52:49.344Z,23.44
2018-09-02T11:53:49.360Z,23.54
2018-09-02T11:54:49.355Z,23.59
2018-09-02T11:55:49.361Z,23.65
2018-09-02T11:56:49.380Z,23.56
2018-09-02T11:57:49.486Z,23.61
2018-09-02T11:58:49.380Z,23.62
2018-09-02T11:59:49.383Z,23.68
2018-09-02T12:00:49.402Z,23.46
2018-09-02T12:01:49.395Z,23.44
2018-09-02T12:02:49.401Z,23.58
2018-09-02T12:03:49.454Z,23.66
2018-09-02T12:04:49.421Z,23.68
2018-09-02T12:05:49.418Z,23.63
2018-09-02T12:06:49.421Z,23.68
2018-09-02T12:07:49.427Z,23.66
2018-09-02T12:08:49.432Z,23.66
2018-09-02T12:09:49.438Z,23.78
2018-09-02T12:10:49.443Z,23.73
2018-09-02T12:11:49.472Z,23.87
2018-09-02T12:12:49.453Z,23.92
2018-09-02T12:13:49.461Z,24.02
2018-09-02T12:14:49.465Z,23.98
2018-09-02T12:15:49.470Z,23.78
2018-09-02T12:16:49.475Z,23.81
2018-09-02T12:17:49.481Z,23.66
2018-09-02T12:18:49.485Z,23.66
2018-09-02T12:19:49.492Z,23.68
2018-09-02T12:20:49.498Z,23.65
2018-09-02T12:21:49.507Z,23.71
2018-09-02T12:22:49.507Z,23.73
2018-09-02T12:23:49.514Z,23.76
2018-09-02T12:24:49.519Z,23.78
2018-09-02T12:25:49.525Z,23.87
2018-09-02T12:26:49.528Z,23.76
2018-09-02T12:27:49.534Z,23.93
2018-09-02T12:28:49.539Z,23.96
2018-09-02T12:29:49.545Z,24.02
2018-09-02T12:30:49.550Z,24.01
2018-09-02T12:31:49.556Z,23.99
2018-09-02T12:32:49.561Z,24.02
2018-09-02T12:33:49.566Z,24.06
2018-09-02T12:34:49.572Z,24.05
2018-09-02T12:35:49.577Z,23.99
2018-09-02T12:36:49.582Z,23.92
2018-09-02T12:37:49.590Z,23.81
2018-09-02T12:38:49.592Z,23.62
2018-09-02T12:39:49.596Z,23.77
2018-09-02T12:40:49.602Z,23.71
2018-09-02T12:41:49.608Z,23.59
2018-09-02T12:42:49.616Z,23.74
2018-09-02T12:43:49.617Z,23.63
2018-09-02T12:44:49.623Z,23.68
2018-09-02T12:45:49.630Z,23.62
2018-09-02T12:46:49.638Z,23.69
2018-09-02T12:47:49.745Z,23.58
2018-09-02T12:48:49.644Z,23.68
2018-09-02T12:49:49.653Z,23.69
2018-09-02T12:50:49.655Z,23.83
2018-09-02T12:51:49.660Z,23.74
2018-09-02T12:52:49.665Z,23.63
2018-09-02T12:53:49.673Z,23.63
2018-09-02T12:54:49.675Z,23.68